Arcata/Eureka (ACV/KACV)

Map

Destinations

Information

Location
Arcata/Eureka, CA
Local Time
10:02 / 10:02 am
GMT Time
18:02 / 6:02 pm
Gates
6
No FAA reported delays
METAR KACV 191753Z AUTO 07004KT 10SM CLR 08/06 A3014 RMK AO2 SLP214 T00830056 10083 20011 50003
TAF KACV 191740Z 1918/2018 13005KT P6SM FEW012 BKN250 FM191900 18008KT P6SM SCT150 OVC200 FM200300 15008KT P6SM SCT050 SCT070 OVC100 FM200600 14010KT P6SM -RA SCT030 OVC050 FM200900 15012G20KT 4SM -RA FEW015 OVC030 WS020/20035KT FM201300 15010G18KT 3SM -RA BR SCT015 OVC020 WS020/22040KT